Dogwood City, Texas
Current Conditions -  °F | °C
As of 11:53 AM on Saturday 25 Oct 2014 (Local Time) from KTYR Reporting Station
Clear Clear  
Wind Chill: 79°   Ceiling: Unl
Heat Index: 80°   Visibility: 10mi
Dew Point: 59°   Wind: 9mph
Humidity: 50%   Direction: 220°SW
Pressure: 30.17"   Gusts: NA
Location:  32.2242°N, 95.404°W
Report Text: KTYR 251653Z 22008KT 10SM CLR 26/15 A3017 RMK AO2 SLP210 T02610150
Loading
Personal Weather Stations






























Interactive Weather Map
Tropical Storm Tracking
New forecast layout! Learn more

10-Day Weather Forecast

Advertisements
Track Severe Weather on mobile